sensor_id;sensor_type;location;lat;lon;timestamp;pressure;altitude;pressure_sealevel;temperature;humidity
11808;BME280;5961;42.640;23.380;2023-08-12T00:00:20;94635.53;;;19.74;74.76
11808;BME280;5961;42.640;23.380;2023-08-12T00:02:47;94637.09;;;19.75;74.60
11808;BME280;5961;42.640;23.380;2023-08-12T00:05:14;94638.22;;;19.67;75.00
11808;BME280;5961;42.640;23.380;2023-08-12T00:07:41;94628.19;;;19.67;75.05
11808;BME280;5961;42.640;23.380;2023-08-12T00:10:09;94643.97;;;19.65;74.97
11808;BME280;5961;42.640;23.380;2023-08-12T00:12:37;94628.53;;;19.62;74.70
11808;BME280;5961;42.640;23.380;2023-08-12T00:15:06;94624.66;;;19.60;74.71
11808;BME280;5961;42.640;23.380;2023-08-12T00:17:34;94630.88;;;19.64;74.58
11808;BME280;5961;42.640;23.380;2023-08-12T00:20:01;94606.91;;;19.52;74.51
11808;BME280;5961;42.640;23.380;2023-08-12T00:22:30;94593.66;;;19.36;74.24
11808;BME280;5961;42.640;23.380;2023-08-12T00:24:57;94628.94;;;19.64;74.25
11808;BME280;5961;42.640;23.380;2023-08-12T00:27:24;94625.06;;;19.62;74.26
11808;BME280;5961;42.640;23.380;2023-08-12T00:29:50;94621.97;;;19.60;74.42
11808;BME280;5961;42.640;23.380;2023-08-12T00:32:18;94628.16;;;19.60;73.54
11808;BME280;5961;42.640;23.380;2023-08-12T00:34:45;94618.44;;;19.49;73.65
11808;BME280;5961;42.640;23.380;2023-08-12T00:37:12;94620.41;;;19.59;73.53
11808;BME280;5961;42.640;23.380;2023-08-12T00:39:38;94620.78;;;19.54;73.84
11808;BME280;5961;42.640;23.380;2023-08-12T00:42:05;94620.78;;;19.54;73.62
11808;BME280;5961;42.640;23.380;2023-08-12T00:44:32;94614.19;;;19.48;73.59
11808;BME280;5961;42.640;23.380;2023-08-12T00:46:59;94626.16;;;19.54;73.48
11808;BME280;5961;42.640;23.380;2023-08-12T00:49:27;94586.72;;;19.35;73.40
11808;BME280;5961;42.640;23.380;2023-08-12T00:51:54;94629.28;;;19.59;73.20
11808;BME280;5961;42.640;23.380;2023-08-12T00:54:21;94621.59;;;19.61;72.94
11808;BME280;5961;42.640;23.380;2023-08-12T00:56:49;94613.88;;;19.60;72.52
11808;BME280;5961;42.640;23.380;2023-08-12T00:59:17;94619.28;;;19.60;72.65
11808;BME280;5961;42.640;23.380;2023-08-12T01:01:44;94616.63;;;19.67;72.62
11808;BME280;5961;42.640;23.380;2023-08-12T01:04:11;94613.19;;;19.70;72.20
11808;BME280;5961;42.640;23.380;2023-08-12T01:06:39;94608.53;;;19.70;72.22
11808;BME280;5961;42.640;23.380;2023-08-12T01:09:06;94603.94;;;19.71;72.03
11808;BME280;5961;42.640;23.380;2023-08-12T01:11:36;94561.00;;;19.45;71.76
11808;BME280;5961;42.640;23.380;2023-08-12T01:14:09;94601.66;;;19.73;71.63
11808;BME280;5961;42.640;23.380;2023-08-12T01:16:42;94607.50;;;19.82;71.44
11808;BME280;5961;42.640;23.380;2023-08-12T01:19:11;94607.88;;;19.84;71.51
11808;BME280;5961;42.640;23.380;2023-08-12T01:21:43;94605.22;;;19.88;71.07
11808;BME280;5961;42.640;23.380;2023-08-12T01:24:12;94608.25;;;19.86;71.00
11808;BME280;5961;42.640;23.380;2023-08-12T01:26:38;94614.41;;;19.83;71.26
11808;BME280;5961;42.640;23.380;2023-08-12T01:29:04;94607.13;;;19.87;71.17
11808;BME280;5961;42.640;23.380;2023-08-12T01:31:34;94576.22;;;19.74;70.59
11808;BME280;5961;42.640;23.380;2023-08-12T01:34:09;94602.84;;;19.83;70.18
11808;BME280;5961;42.640;23.380;2023-08-12T01:36:39;94597.44;;;19.79;70.45
11808;BME280;5961;42.640;23.380;2023-08-12T01:39:10;94599.41;;;19.82;70.22
11808;BME280;5961;42.640;23.380;2023-08-12T01:41:39;94602.44;;;19.77;69.96
11808;BME280;5961;42.640;23.380;2023-08-12T01:44:06;94592.00;;;19.72;70.21
11808;BME280;5961;42.640;23.380;2023-08-12T01:46:33;94602.44;;;19.77;70.04
11808;BME280;5961;42.640;23.380;2023-08-12T01:48:59;94600.09;;;19.72;69.95
11808;BME280;5961;42.640;23.380;2023-08-12T01:51:26;94595.47;;;19.69;69.83
11808;BME280;5961;42.640;23.380;2023-08-12T01:53:53;94584.22;;;19.60;69.92
11808;BME280;5961;42.640;23.380;2023-08-12T01:56:19;94595.03;;;19.63;69.88
11808;BME280;5961;42.640;23.380;2023-08-12T01:58:47;94589.97;;;19.58;69.96
11808;BME280;5961;42.640;23.380;2023-08-12T02:01:14;94600.47;;;19.67;69.74
11808;BME280;5961;42.640;23.380;2023-08-12T02:03:41;94603.47;;;19.62;70.07
11808;BME280;5961;42.640;23.380;2023-08-12T02:06:07;94593.06;;;19.57;70.29
11808;BME280;5961;42.640;23.380;2023-08-12T02:08:34;94600.78;;;19.62;70.44
11808;BME280;5961;42.640;23.380;2023-08-12T02:11:01;94606.16;;;19.58;70.19
11808;BME280;5961;42.640;23.380;2023-08-12T02:13:27;94598.06;;;19.58;70.14
11808;BME280;5961;42.640;23.380;2023-08-12T02:15:55;94605.41;;;19.58;70.06
11808;BME280;5961;42.640;23.380;2023-08-12T02:18:22;94592.25;;;19.53;69.72
11808;BME280;5961;42.640;23.380;2023-08-12T02:20:49;94567.47;;;19.37;69.48
11808;BME280;5961;42.640;23.380;2023-08-12T02:23:15;94600.75;;;19.55;69.62
11808;BME280;5961;42.640;23.380;2023-08-12T02:25:42;94607.66;;;19.52;69.53
11808;BME280;5961;42.640;23.380;2023-08-12T02:28:10;94596.69;;;19.31;69.51
11808;BME280;5961;42.640;23.380;2023-08-12T02:30:36;94613.44;;;19.51;69.73
11808;BME280;5961;42.640;23.380;2023-08-12T02:33:04;94612.66;;;19.50;69.89
11808;BME280;5961;42.640;23.380;2023-08-12T02:35:32;94609.97;;;19.50;69.68
11808;BME280;5961;42.640;23.380;2023-08-12T02:37:59;94611.44;;;19.44;70.58
11808;BME280;5961;42.640;23.380;2023-08-12T02:40:25;94612.63;;;19.47;70.62
11808;BME280;5961;42.640;23.380;2023-08-12T02:42:52;94607.22;;;19.47;70.62
11808;BME280;5961;42.640;23.380;2023-08-12T02:45:19;94611.44;;;19.44;70.81
11808;BME280;5961;42.640;23.380;2023-08-12T02:47:45;94618.00;;;19.47;70.58
11808;BME280;5961;42.640;23.380;2023-08-12T02:50:13;94610.56;;;19.33;70.98
11808;BME280;5961;42.640;23.380;2023-08-12T02:52:40;94609.13;;;19.39;71.42
11808;BME280;5961;42.640;23.380;2023-08-12T02:55:07;94611.44;;;19.44;71.39
11808;BME280;5961;42.640;23.380;2023-08-12T02:57:34;94618.38;;;19.42;72.04
11808;BME280;5961;42.640;23.380;2023-08-12T03:00:01;94617.59;;;19.41;72.06
11808;BME280;5961;42.640;23.380;2023-08-12T03:02:29;94613.75;;;19.42;72.14
11808;BME280;5961;42.640;23.380;2023-08-12T03:04:56;94620.69;;;19.40;72.01
11808;BME280;5961;42.640;23.380;2023-08-12T03:07:24;94616.38;;;19.39;73.16
11808;BME280;5961;42.640;23.380;2023-08-12T03:09:50;94623.25;;;19.29;73.57
11808;BME280;5961;42.640;23.380;2023-08-12T03:12:17;94626.59;;;19.15;73.84
11808;BME280;5961;42.640;23.380;2023-08-12T03:14:43;94628.84;;;19.10;74.06
11808;BME280;5961;42.640;23.380;2023-08-12T03:17:10;94597.78;;;18.83;74.27
11808;BME280;5961;42.640;23.380;2023-08-12T03:19:37;94628.66;;;18.92;75.29
11808;BME280;5961;42.640;23.380;2023-08-12T03:22:03;94628.66;;;18.92;75.08
11808;BME280;5961;42.640;23.380;2023-08-12T03:24:31;94630.22;;;18.93;74.76
11808;BME280;5961;42.640;23.380;2023-08-12T03:26:58;94520.91;;;18.12;75.23
11808;BME280;5961;42.640;23.380;2023-08-12T03:29:25;94627.38;;;18.76;75.82
11808;BME280;5961;42.640;23.380;2023-08-12T03:31:52;94630.84;;;18.76;75.50
11808;BME280;5961;42.640;23.380;2023-08-12T03:34:18;94627.03;;;18.81;75.27
11808;BME280;5961;42.640;23.380;2023-08-12T03:36:45;94624.75;;;18.86;75.51
11808;BME280;5961;42.640;23.380;2023-08-12T03:39:14;94533.38;;;18.27;75.21
11808;BME280;5961;42.640;23.380;2023-08-12T03:41:42;94532.63;;;18.30;76.00
11808;BME280;5961;42.640;23.380;2023-08-12T03:44:09;94636.00;;;18.95;75.82
11808;BME280;5961;42.640;23.380;2023-08-12T03:46:35;94634.88;;;18.96;74.89
11808;BME280;5961;42.640;23.380;2023-08-12T03:49:02;94630.59;;;18.92;74.47
11808;BME280;5961;42.640;23.380;2023-08-12T03:51:29;94634.06;;;18.92;74.98
11808;BME280;5961;42.640;23.380;2023-08-12T03:53:55;94642.09;;;18.89;75.39
11808;BME280;5961;42.640;23.380;2023-08-12T03:56:22;94622.34;;;18.74;75.74
11808;BME280;5961;42.640;23.380;2023-08-12T03:58:50;94640.31;;;18.63;76.91
11808;BME280;5961;42.640;23.380;2023-08-12T04:01:17;94639.66;;;18.77;76.51
11808;BME280;5961;42.640;23.380;2023-08-12T04:03:44;94630.41;;;18.74;76.77
11808;BME280;5961;42.640;23.380;2023-08-12T04:06:10;94633.09;;;18.74;77.42
11808;BME280;5961;42.640;23.380;2023-08-12T04:08:38;94632.31;;;18.70;77.42
11808;BME280;5961;42.640;23.380;2023-08-12T04:11:05;94624.63;;;18.72;77.17
11808;BME280;5961;42.640;23.380;2023-08-12T04:13:31;94629.28;;;18.75;76.65
11808;BME280;5961;42.640;23.380;2023-08-12T04:15:59;94632.44;;;18.84;76.18
11808;BME280;5961;42.640;23.380;2023-08-12T04:18:26;94635.53;;;18.86;75.09
11808;BME280;5961;42.640;23.380;2023-08-12T04:20:53;94637.53;;;18.93;74.77
11808;BME280;5961;42.640;23.380;2023-08-12T04:23:20;94634.47;;;18.94;74.37
11808;BME280;5961;42.640;23.380;2023-08-12T04:25:47;94642.63;;;19.01;73.56
11808;BME280;5961;42.640;23.380;2023-08-12T04:28:14;94647.25;;;19.04;74.24
11808;BME280;5961;42.640;23.380;2023-08-12T04:30:41;94610.03;;;18.77;74.88
11808;BME280;5961;42.640;23.380;2023-08-12T04:33:09;94643.03;;;19.03;74.56
11808;BME280;5961;42.640;23.380;2023-08-12T04:35:36;94645.78;;;19.10;74.10
11808;BME280;5961;42.640;23.380;2023-08-12T04:38:03;94643.91;;;19.14;73.68
11808;BME280;5961;42.640;23.380;2023-08-12T04:40:30;94648.16;;;19.19;74.47
11808;BME280;5961;42.640;23.380;2023-08-12T04:42:58;94648.25;;;19.26;74.72
11808;BME280;5961;42.640;23.380;2023-08-12T04:45:25;94625.47;;;19.20;74.84
11808;BME280;5961;42.640;23.380;2023-08-12T04:47:52;94638.66;;;19.32;74.79
11808;BME280;5961;42.640;23.380;2023-08-12T04:50:20;94627.47;;;19.27;75.04
11808;BME280;5961;42.640;23.380;2023-08-12T04:52:47;94640.63;;;19.35;74.78
11808;BME280;5961;42.640;23.380;2023-08-12T04:55:14;94652.63;;;19.41;74.80
11808;BME280;5961;42.640;23.380;2023-08-12T04:57:40;94645.72;;;19.44;73.96
11808;BME280;5961;42.640;23.380;2023-08-12T05:00:07;94643.44;;;19.46;73.27
11808;BME280;5961;42.640;23.380;2023-08-12T05:02:34;94646.88;;;19.43;73.39
11808;BME280;5961;42.640;23.380;2023-08-12T05:05:01;94647.66;;;19.47;73.62
11808;BME280;5961;42.640;23.380;2023-08-12T05:07:29;94646.91;;;19.50;73.91
11808;BME280;5961;42.640;23.380;2023-08-12T05:09:59;94650.81;;;19.56;74.54
11808;BME280;5961;42.640;23.380;2023-08-12T05:12:26;94651.63;;;19.60;74.39
11808;BME280;5961;42.640;23.380;2023-08-12T05:14:52;94653.19;;;19.64;74.73
11808;BME280;5961;42.640;23.380;2023-08-12T05:17:19;94653.97;;;19.65;75.06
11808;BME280;5961;42.640;23.380;2023-08-12T05:19:46;94653.66;;;19.70;74.95
11808;BME280;5961;42.640;23.380;2023-08-12T05:22:12;94652.50;;;19.75;74.50
11808;BME280;5961;42.640;23.380;2023-08-12T05:24:40;94652.50;;;19.75;72.46
11808;BME280;5961;42.640;23.380;2023-08-12T05:27:07;94656.75;;;19.76;72.29
11808;BME280;5961;42.640;23.380;2023-08-12T05:29:34;94660.66;;;19.82;71.92
11808;BME280;5961;42.640;23.380;2023-08-12T05:32:12;94674.91;;;19.82;70.91
11808;BME280;5961;42.640;23.380;2023-08-12T05:34:38;94662.63;;;19.88;71.15
11808;BME280;5961;42.640;23.380;2023-08-12T05:37:05;94661.88;;;19.91;70.67
11808;BME280;5961;42.640;23.380;2023-08-12T05:39:32;94658.03;;;19.92;70.85
11808;BME280;5961;42.640;23.380;2023-08-12T05:42:00;94670.00;;;19.98;70.86
11808;BME280;5961;42.640;23.380;2023-08-12T05:44:26;94661.13;;;19.94;70.77
11808;BME280;5961;42.640;23.380;2023-08-12T05:46:57;94658.81;;;19.96;70.96
11808;BME280;5961;42.640;23.380;2023-08-12T05:49:24;94671.19;;;20.04;70.56
11808;BME280;5961;42.640;23.380;2023-08-12T05:51:51;94658.09;;;20.03;70.72
11808;BME280;5961;42.640;23.380;2023-08-12T05:54:17;94658.88;;;20.03;70.13
11808;BME280;5961;42.640;23.380;2023-08-12T05:56:44;94665.41;;;20.02;68.77
11808;BME280;5961;42.640;23.380;2023-08-12T05:59:12;94662.72;;;20.02;68.51
11808;BME280;5961;42.640;23.380;2023-08-12T06:01:39;94651.91;;;20.02;67.08
11808;BME280;5961;42.640;23.380;2023-08-12T06:04:06;94665.03;;;20.00;66.64
11808;BME280;5961;42.640;23.380;2023-08-12T06:06:32;94605.44;;;19.65;66.01
11808;BME280;5961;42.640;23.380;2023-08-12T06:08:59;94648.81;;;19.97;66.04
11808;BME280;5961;42.640;23.380;2023-08-12T06:11:26;94639.13;;;19.92;66.75
11808;BME280;5961;42.640;23.380;2023-08-12T06:13:52;94647.97;;;19.89;67.15
11808;BME280;5961;42.640;23.380;2023-08-12T06:16:20;94650.72;;;19.96;66.70
11808;BME280;5961;42.640;23.380;2023-08-12T06:18:47;94639.13;;;19.92;66.97
11808;BME280;5961;42.640;23.380;2023-08-12T06:21:14;94642.66;;;20.00;67.12
11808;BME280;5961;42.640;23.380;2023-08-12T06:23:40;94644.19;;;20.01;67.02
11808;BME280;5961;42.640;23.380;2023-08-12T06:26:07;94590.84;;;19.69;66.83
11808;BME280;5961;42.640;23.380;2023-08-12T06:28:34;94646.19;;;20.11;65.76
11808;BME280;5961;42.640;23.380;2023-08-12T06:31:01;94643.09;;;20.09;65.81
11808;BME280;5961;42.640;23.380;2023-08-12T06:33:29;94644.22;;;20.04;66.28
11808;BME280;5961;42.640;23.380;2023-08-12T06:35:55;94636.50;;;20.03;65.76
11808;BME280;5961;42.640;23.380;2023-08-12T06:38:22;94631.88;;;20.00;65.88
11808;BME280;5961;42.640;23.380;2023-08-12T06:40:49;94620.25;;;19.92;66.06
11808;BME280;5961;42.640;23.380;2023-08-12T06:43:16;94637.28;;;20.07;66.37
11808;BME280;5961;42.640;23.380;2023-08-12T06:45:42;94632.72;;;20.14;66.57
11808;BME280;5961;42.640;23.380;2023-08-12T06:48:09;94622.69;;;20.11;66.71
11808;BME280;5961;42.640;23.380;2023-08-12T06:50:37;94628.13;;;20.22;66.28
11808;BME280;5961;42.640;23.380;2023-08-12T06:53:04;94631.28;;;20.28;65.90
11808;BME280;5961;42.640;23.380;2023-08-12T06:55:30;94608.91;;;20.27;65.95
11808;BME280;5961;42.640;23.380;2023-08-12T06:57:57;94627.50;;;20.43;66.68
11808;BME280;5961;42.640;23.380;2023-08-12T07:00:24;94625.19;;;20.48;66.86
11808;BME280;5961;42.640;23.380;2023-08-12T07:02:50;94633.31;;;20.52;66.57
11808;BME280;5961;42.640;23.380;2023-08-12T07:05:17;94628.31;;;20.61;66.28
11808;BME280;5961;42.640;23.380;2023-08-12T07:07:47;94626.81;;;20.67;64.99
11808;BME280;5961;42.640;23.380;2023-08-12T07:10:13;94616.00;;;20.67;64.34
11808;BME280;5961;42.640;23.380;2023-08-12T07:12:40;94621.03;;;20.79;65.03
11808;BME280;5961;42.640;23.380;2023-08-12T07:15:08;94595.13;;;20.67;65.29
11808;BME280;5961;42.640;23.380;2023-08-12T07:17:36;94561.16;;;20.49;65.07
11808;BME280;5961;42.640;23.380;2023-08-12T07:20:07;94621.47;;;20.95;63.99
11808;BME280;5961;42.640;23.380;2023-08-12T07:22:34;94619.91;;;20.98;63.31
11808;BME280;5961;42.640;23.380;2023-08-12T07:25:02;94623.44;;;21.09;61.99
11808;BME280;5961;42.640;23.380;2023-08-12T07:27:29;94631.94;;;21.14;62.49
11808;BME280;5961;42.640;23.380;2023-08-12T07:29:55;94623.44;;;21.19;62.71
11808;BME280;5961;42.640;23.380;2023-08-12T07:32:22;94619.59;;;21.24;60.79
11808;BME280;5961;42.640;23.380;2023-08-12T07:34:49;94613.78;;;21.22;60.97
11808;BME280;5961;42.640;23.380;2023-08-12T07:37:15;94627.72;;;21.34;60.99
11808;BME280;5961;42.640;23.380;2023-08-12T07:39:42;94592.56;;;21.13;61.50
11808;BME280;5961;42.640;23.380;2023-08-12T07:42:10;94618.47;;;21.39;61.30
11808;BME280;5961;42.640;23.380;2023-08-12T07:44:37;94610.72;;;21.41;61.06
11808;BME280;5961;42.640;23.380;2023-08-12T07:47:04;94520.31;;;20.89;61.17
11808;BME280;5961;42.640;23.380;2023-08-12T07:49:31;94619.22;;;21.54;62.06
11808;BME280;5961;42.640;23.380;2023-08-12T07:51:57;94619.19;;;21.64;61.10
11808;BME280;5961;42.640;23.380;2023-08-12T07:54:24;94616.88;;;21.70;60.75
11808;BME280;5961;42.640;23.380;2023-08-12T07:56:51;94617.28;;;21.75;60.34
11808;BME280;5961;42.640;23.380;2023-08-12T07:59:20;94609.91;;;21.79;59.65
11808;BME280;5961;42.640;23.380;2023-08-12T08:01:47;94607.56;;;21.85;59.22
11808;BME280;5961;42.640;23.380;2023-08-12T08:04:13;94607.59;;;21.88;58.65
11808;BME280;5961;42.640;23.380;2023-08-12T08:06:40;94595.22;;;21.91;59.04
11808;BME280;5961;42.640;23.380;2023-08-12T08:09:07;94602.19;;;21.96;58.51
11808;BME280;5961;42.640;23.380;2023-08-12T08:11:33;94605.25;;;22.01;59.15
11808;BME280;5961;42.640;23.380;2023-08-12T08:14:00;94595.22;;;21.91;59.06
11808;BME280;5961;42.640;23.380;2023-08-12T08:16:28;94600.59;;;22.12;58.74
11808;BME280;5961;42.640;23.380;2023-08-12T08:18:55;94579.72;;;22.09;58.30
11808;BME280;5961;42.640;23.380;2023-08-12T08:21:21;94599.00;;;22.25;58.38
11808;BME280;5961;42.640;23.380;2023-08-12T08:23:48;94601.28;;;22.30;56.94
11808;BME280;5961;42.640;23.380;2023-08-12T08:26:15;94604.41;;;22.32;56.16
11808;BME280;5961;42.640;23.380;2023-08-12T08:28:42;94590.47;;;22.30;56.18
11808;BME280;5961;42.640;23.380;2023-08-12T08:31:09;94597.41;;;22.38;55.75
11808;BME280;5961;42.640;23.380;2023-08-12T08:33:37;94608.19;;;22.49;56.36
11808;BME280;5961;42.640;23.380;2023-08-12T08:36:04;94580.75;;;22.40;55.34
11808;BME280;5961;42.640;23.380;2023-08-12T08:38:31;94617.06;;;22.57;53.58
11808;BME280;5961;42.640;23.380;2023-08-12T08:40:58;94595.34;;;22.64;52.89
11808;BME280;5961;42.640;23.380;2023-08-12T08:43:26;94599.63;;;22.68;52.64
11808;BME280;5961;42.640;23.380;2023-08-12T08:45:53;94598.06;;;22.71;53.47
11808;BME280;5961;42.640;23.380;2023-08-12T08:48:21;94588.00;;;22.71;53.59
11808;BME280;5961;42.640;23.380;2023-08-12T08:50:49;94549.75;;;22.52;52.44
11808;BME280;5961;42.640;23.380;2023-08-12T08:53:17;94589.88;;;22.81;51.57
11808;BME280;5961;42.640;23.380;2023-08-12T08:55:46;94588.31;;;22.87;51.85
11808;BME280;5961;42.640;23.380;2023-08-12T08:58:13;94582.84;;;22.91;52.63
11808;BME280;5961;42.640;23.380;2023-08-12T09:00:39;94570.84;;;22.92;53.58
11808;BME280;5961;42.640;23.380;2023-08-12T09:03:07;94585.47;;;23.05;52.90
11808;BME280;5961;42.640;23.380;2023-08-12T09:05:35;94583.50;;;23.09;51.57
11808;BME280;5961;42.640;23.380;2023-08-12T09:08:06;94581.91;;;23.15;50.85
11808;BME280;5961;42.640;23.380;2023-08-12T09:10:36;94576.88;;;23.17;50.92
11808;BME280;5961;42.640;23.380;2023-08-12T09:13:05;94579.91;;;23.23;50.79
11808;BME280;5961;42.640;23.380;2023-08-12T09:15:32;94550.59;;;23.07;50.37
11808;BME280;5961;42.640;23.380;2023-08-12T09:17:59;94567.13;;;23.23;51.44
11808;BME280;5961;42.640;23.380;2023-08-12T09:20:26;94573.63;;;23.33;50.39
11808;BME280;5961;42.640;23.380;2023-08-12T09:22:57;94576.69;;;23.38;51.10
11808;BME280;5961;42.640;23.380;2023-08-12T09:25:25;94566.59;;;23.42;49.81
11808;BME280;5961;42.640;23.380;2023-08-12T09:27:54;94559.59;;;23.45;48.90
11808;BME280;5961;42.640;23.380;2023-08-12T09:30:21;94551.88;;;23.43;50.03
11808;BME280;5961;42.640;23.380;2023-08-12T09:32:58;94554.91;;;23.53;49.08
11808;BME280;5961;42.640;23.380;2023-08-12T09:35:32;94547.91;;;23.55;49.48
11808;BME280;5961;42.640;23.380;2023-08-12T09:38:00;94554.06;;;23.59;50.13
11808;BME280;5961;42.640;23.380;2023-08-12T09:40:30;94498.44;;;23.33;50.04
11808;BME280;5961;42.640;23.380;2023-08-12T09:43:00;94540.84;;;23.61;49.63
11808;BME280;5961;42.640;23.380;2023-08-12T09:45:27;94520.38;;;23.57;51.20
11808;BME280;5961;42.640;23.380;2023-08-12T09:47:54;94498.31;;;23.51;54.78
11808;BME280;5961;42.640;23.380;2023-08-12T09:50:22;94542.22;;;23.80;53.55
11808;BME280;5961;42.640;23.380;2023-08-12T09:52:49;94542.97;;;23.84;50.41
11808;BME280;5961;42.640;23.380;2023-08-12T09:55:17;94537.91;;;23.86;49.89
11808;BME280;5961;42.640;23.380;2023-08-12T09:57:48;94544.44;;;23.92;49.50
11808;BME280;5961;42.640;23.380;2023-08-12T10:00:18;94491.19;;;23.68;48.93
11808;BME280;5961;42.640;23.380;2023-08-12T10:02:46;94525.72;;;24.01;49.29
11808;BME280;5961;42.640;23.380;2023-08-12T10:05:17;94530.28;;;24.08;49.05
11808;BME280;5961;42.640;23.380;2023-08-12T10:07:45;94522.88;;;24.12;48.74
11808;BME280;5961;42.640;23.380;2023-08-12T10:10:12;94523.22;;;24.17;48.64
11808;BME280;5961;42.640;23.380;2023-08-12T10:12:41;94517.69;;;24.24;48.39
11808;BME280;5961;42.640;23.380;2023-08-12T10:15:10;94518.44;;;24.28;47.21
11808;BME280;5961;42.640;23.380;2023-08-12T10:17:38;94511.41;;;24.31;49.43
11808;BME280;5961;42.640;23.380;2023-08-12T10:20:06;94519.50;;;24.34;48.46
11808;BME280;5961;42.640;23.380;2023-08-12T10:22:35;94527.63;;;24.38;47.62
11808;BME280;5961;42.640;23.380;2023-08-12T10:25:03;94517.84;;;24.44;47.04
11808;BME280;5961;42.640;23.380;2023-08-12T10:27:31;94520.50;;;24.47;48.00
11808;BME280;5961;42.640;23.380;2023-08-12T10:29:58;94505.44;;;24.43;44.81
11808;BME280;5961;42.640;23.380;2023-08-12T10:32:26;94508.88;;;24.47;44.08
11808;BME280;5961;42.640;23.380;2023-08-12T10:34:56;94506.16;;;24.47;44.15
11808;BME280;5961;42.640;23.380;2023-08-12T10:37:24;94506.47;;;24.52;45.59
11808;BME280;5961;42.640;23.380;2023-08-12T10:39:52;94489.47;;;24.45;44.84
11808;BME280;5961;42.640;23.380;2023-08-12T10:42:41;94496.31;;;24.56;45.06
11808;BME280;5961;42.640;23.380;2023-08-12T10:45:09;94496.72;;;24.55;46.26
11808;BME280;5961;42.640;23.380;2023-08-12T10:47:41;94490.06;;;24.60;45.89
11808;BME280;5961;42.640;23.380;2023-08-12T10:50:19;94486.53;;;24.63;43.81
11808;BME280;5961;42.640;23.380;2023-08-12T10:52:46;94478.31;;;24.66;46.24
11808;BME280;5961;42.640;23.380;2023-08-12T10:55:16;94486.78;;;24.72;43.88
11808;BME280;5961;42.640;23.380;2023-08-12T10:57:43;94475.84;;;24.75;42.74
11808;BME280;5961;42.640;23.380;2023-08-12T11:00:11;94471.81;;;24.87;43.99
11808;BME280;5961;42.640;23.380;2023-08-12T11:02:44;94476.31;;;24.97;42.68
11808;BME280;5961;42.640;23.380;2023-08-12T11:05:12;94483.19;;;25.05;40.85
11808;BME280;5961;42.640;23.380;2023-08-12T11:07:41;94449.78;;;25.04;41.45
11808;BME280;5961;42.640;23.380;2023-08-12T11:10:13;94471.47;;;25.31;41.01
11808;BME280;5961;42.640;23.380;2023-08-12T11:12:41;94475.97;;;25.41;39.66
11808;BME280;5961;42.640;23.380;2023-08-12T11:15:09;94464.56;;;25.50;41.12
11808;BME280;5961;42.640;23.380;2023-08-12T11:17:37;94420.88;;;25.34;40.24
11808;BME280;5961;42.640;23.380;2023-08-12T11:20:07;94478.78;;;25.81;40.22
11808;BME280;5961;42.640;23.380;2023-08-12T11:22:36;94467.59;;;25.95;39.05
11808;BME280;5961;42.640;23.380;2023-08-12T11:25:04;94465.41;;;26.06;38.16
11808;BME280;5961;42.640;23.380;2023-08-12T11:27:37;94454.78;;;26.11;37.93
11808;BME280;5961;42.640;23.380;2023-08-12T11:30:06;94463.31;;;26.33;37.80
11808;BME280;5961;42.640;23.380;2023-08-12T11:32:35;94456.03;;;26.46;37.12
11808;BME280;5961;42.640;23.380;2023-08-12T11:35:03;94454.34;;;26.52;36.83
11808;BME280;5961;42.640;23.380;2023-08-12T11:37:33;94459.78;;;26.52;35.63
11808;BME280;5961;42.640;23.380;2023-08-12T11:40:01;94456.72;;;26.66;34.85
11808;BME280;5961;42.640;23.380;2023-08-12T11:42:29;94457.72;;;26.56;33.29
11808;BME280;5961;42.640;23.380;2023-08-12T11:44:58;94447.97;;;26.59;33.45
11808;BME280;5961;42.640;23.380;2023-08-12T11:47:25;94459.34;;;26.54;33.71
11808;BME280;5961;42.640;23.380;2023-08-12T11:49:52;94456.03;;;26.46;34.19
11808;BME280;5961;42.640;23.380;2023-08-12T11:52:20;94457.34;;;26.38;33.90
11808;BME280;5961;42.640;23.380;2023-08-12T11:54:49;94460.19;;;26.35;34.09
11808;BME280;5961;42.640;23.380;2023-08-12T11:57:16;94437.34;;;26.29;33.15
11808;BME280;5961;42.640;23.380;2023-08-12T11:59:43;94446.81;;;26.56;32.39
11808;BME280;5961;42.640;23.380;2023-08-12T12:02:10;94426.81;;;26.63;32.99
11808;BME280;5961;42.640;23.380;2023-08-12T12:04:37;94444.59;;;26.87;32.54
11808;BME280;5961;42.640;23.380;2023-08-12T12:07:17;94435.97;;;27.05;32.09
11808;BME280;5961;42.640;23.380;2023-08-12T12:09:44;94434.00;;;27.21;31.13
11808;BME280;5961;42.640;23.380;2023-08-12T12:12:12;94440.09;;;27.42;30.29
11808;BME280;5961;42.640;23.380;2023-08-12T12:14:39;94445.78;;;27.63;30.27
11808;BME280;5961;42.640;23.380;2023-08-12T12:17:07;94443.03;;;27.79;29.07
11808;BME280;5961;42.640;23.380;2023-08-12T12:19:34;94422.31;;;27.95;29.32
11808;BME280;5961;42.640;23.380;2023-08-12T12:22:03;94396.81;;;27.85;28.82
11808;BME280;5961;42.640;23.380;2023-08-12T12:24:30;94422.72;;;28.22;28.79
11808;BME280;5961;42.640;23.380;2023-08-12T12:26:57;94405.00;;;28.26;28.56
11808;BME280;5961;42.640;23.380;2023-08-12T12:29:26;94401.50;;;28.39;28.85
11808;BME280;5961;42.640;23.380;2023-08-12T12:31:52;94428.44;;;28.65;29.85
11808;BME280;5961;42.640;23.380;2023-08-12T12:34:19;94419.47;;;28.77;30.30
11808;BME280;5961;42.640;23.380;2023-08-12T12:36:46;94416.50;;;28.84;29.58
11808;BME280;5961;42.640;23.380;2023-08-12T12:39:12;94415.84;;;28.80;29.64
11808;BME280;5961;42.640;23.380;2023-08-12T12:41:39;94415.28;;;28.60;29.72
11808;BME280;5961;42.640;23.380;2023-08-12T12:44:06;94417.25;;;28.60;31.18
11808;BME280;5961;42.640;23.380;2023-08-12T12:46:35;94401.72;;;28.44;31.56
11808;BME280;5961;42.640;23.380;2023-08-12T12:49:01;94392.66;;;28.22;32.77
11808;BME280;5961;42.640;23.380;2023-08-12T12:51:28;94412.97;;;28.21;32.93
11808;BME280;5961;42.640;23.380;2023-08-12T12:53:55;94392.69;;;27.93;32.65
11808;BME280;5961;42.640;23.380;2023-08-12T12:56:22;94399.09;;;27.87;32.81
11808;BME280;5961;42.640;23.380;2023-08-12T12:58:49;94398.31;;;27.73;33.47
11808;BME280;5961;42.640;23.380;2023-08-12T13:01:16;94400.19;;;27.48;33.73